首页
METAR-TAF:

METAR-TAF

机场 :

Durango-La Plata County Airport

杜兰戈, 科羅拉多州, 美国

纬度: 37-08-35N, 经度: 107-45-35W, 海拔: 2038米

当前天气观测

该预报发布于52分钟前的14:53 UTC
静风
温度 14°C
湿度 28%
气压 1020 hPa
能見度: 16.1公里
天空无云

METAR: KDRO 261453Z AUTO 00000KT 10SM CLR 14/M04 A3011 RMK AO2 SLP131 T01391039 51017

时间: 09:45 (15:45 UTC)

预报

该预报发布于4小时和25分钟前的11:20 UTC
预报有效从26日的 12点(UTC)到 27日的 12点(UTC)
风速4节,风向多变
能見度: 10公里
天空无云
从 26日的 1700点(UTC)
风速10节,风向西,有时为20节阵风
能見度: 10公里
天空无云
从 26日的 2200点(UTC)
风速15节,风向西,有时为28节阵风
能見度: 10公里
天空无云
从 27日的 0300点(UTC)
风速7节,风向
能見度: 10公里
天空无云

TAF: KDRO 261120Z 2612/2712 VRB04KT P6SM SKC FM261700 28010G20KT P6SM SKC FM262200 27015G28KT P6SM SKC FM270300 36007KT P6SM SKC

超过4000个机场的气象观测和天气预报(METAR&TAF报告)。

可查询的气象台以黄色和红色小点在地图上表示。

将鼠标移到小点上方,可查看气象台名称。

然后点击查看天气观测和预报。

如需切换地图:点击带黑十字的绿色按钮放大地图;点击带横线的绿色按钮缩小地图;或者点击绿色箭头查看邻近地区的地图。


METAR-TAF: